Flight Track Log - Related Links

Times and Time Zones

All times are in EDT time to prevent confusion due to time zone crossing. See the OPT429 flight status page for this flight to view local times or setup timezone preferences in your user account.

Time Position Orientation Groundspeed Altitude Reporting Facility
EDT Latitude Longitude Course Direction KTS MPH feet Rate Location/Type
Wed 03:41:06 PM 28.3833 -81.2833 139° Southeast 196 226 4,900  Level Orlando TRACON
Wed 03:42:06 PM 28.3333 -81.2167 130° Southeast 264 304 7,400 1,600 Climbing Orlando TRACON
Wed 03:43:06 PM 28.2833 -81.1500 130° Southeast 297 342 8,100 1,078 Climbing Orlando TRACON
Wed 03:44:14 PM 28.2094 -81.0819 141° Southeast 299 344 9,700 1,800 Climbing Miami Center
Wed 03:45:00 PM 28.0803 -81.0627 134° Southeast  Level Estimated
Wed 03:45:16 PM 28.1464 -81.0122 136° Southeast 315 362 12,000  Level Miami Center
Wed 03:46:18 PM 28.0683 -80.9239 135° Southeast 387 445 12,000  Level Miami Center
Wed 03:47:20 PM 27.9853 -80.8342 136° Southeast 393 452 12,000  Level Miami Center
Wed 03:48:22 PM 27.9008 -80.7450 137° Southeast 393 452 12,000  Level Miami Center
Wed 03:49:24 PM 27.8172 -80.6564 137° Southeast 393 452 12,000  Level Miami Center
Wed 03:50:26 PM 27.7342 -80.5686 137° Southeast 393 452 12,000  Level Miami Center
Wed 03:51:28 PM 27.6567 -80.4875 137° Southeast 390 449 12,000  Level Miami Center
Wed 03:52:30 PM 27.5747 -80.4017 137° Southeast 387 445 12,000  Level Miami Center
Wed 03:53:32 PM 27.4969 -80.3206 137° Southeast 367 422 12,000  Level Miami Center
Wed 03:54:34 PM 27.4203 -80.2403 137° Southeast 363 418 12,000 -532 Level Miami Center
Wed 03:55:36 PM 27.3489 -80.1661 137° Southeast 332 382 10,900 -968 Descending Miami Center
Wed 03:56:38 PM 27.2653 -80.1331 161° South 314 361 10,000 -1,113 Descending Miami Center
Wed 03:57:40 PM 27.1833 -80.1222 173° South 308 354 8,600 -1,694 Descending Miami Center
Wed 03:58:42 PM 27.0983 -80.1083 172° South 297 342 6,500 -2,032 Descending Miami Center
Wed 03:59:44 PM 27.0186 -80.0981 173° South 277 319 4,400 -1,210 Descending Miami Center
Wed 04:00:46 PM 26.9439 -80.1078 187° South 265 305 4,000 -532 Descending Miami Center
Wed 04:01:48 PM 26.8778 -80.1269 194° South 237 273 3,300 -532 Descending Miami Center
Wed 04:02:50 PM 26.8175 -80.1392 190° South 228 262 2,900 -774 Descending Miami Center
Wed 04:03:52 PM 26.7619 -80.1408 182° South 194 223 1,700 -1,065 Descending Miami Center
Wed 04:04:54 PM 26.7156 -80.1303 169° South 162 186 700 -585 Descending Miami Center
Wed 04:05:55 PM 26.6861 -80.1014 139° Southeast 157 181 500 -197 Descending Miami Center
Wed 04:07:00 PM 26.6832 -80.0956 110° East  Level Estimated
Wed 04:14:00 PM 26.6832 -80.0956 110° East  Level Estimated

Login

Don't have an account? Register now (free) for customized features, flight alerts, and more!